This is the latest recevied weather packets stored in our database for station/object OH2CHY-10. If no packets are shown the sender has not sent any weather packets the latest 10 day(s).
| Time | Temp. | Humidity | Pressure | Rain* | Wind** | Luminosity | Snow |
|---|---|---|---|---|---|---|---|
| 1777959861 | 9.44° C | 66% | 1001 hPa | - | - | - | - |
| 1777958961 | 8.89° C | 68% | 1000.9 hPa | - | - | - | - |
| 1777958061 | 8.89° C | 70% | 1001.1 hPa | - | - | - | - |
| 1777957161 | 9.44° C | 69% | 1001.2 hPa | - | - | - | - |
| 1777956261 | 11.11° C | 67% | 1001.2 hPa | - | - | - | - |
| 1777955361 | 9.44° C | 80% | 1001.4 hPa | - | - | - | - |
| 1777954461 | 5.56° C | 85% | 1001.4 hPa | - | - | - | - |
| 1777953561 | 5° C | 87% | 1001.3 hPa | - | - | - | - |
| 1777952660 | 5° C | 87% | 1001.4 hPa | - | - | - | - |
| 1777951760 | 5° C | 87% | 1001.5 hPa | - | - | - | - |
| 1777950860 | 5.56° C | 87% | 1001.6 hPa | - | - | - | - |
| 1777949960 | 5.56° C | 86% | 1001.6 hPa | - | - | - | - |
| 1777949060 | 5.56° C | 85% | 1001.7 hPa | - | - | - | - |
| 1777948160 | 5.56° C | 84% | 1001.7 hPa | - | - | - | - |
| 1777947260 | 6.11° C | 83% | 1001.8 hPa | - | - | - | - |
| 1777946360 | 6.11° C | 83% | 1002.2 hPa | - | - | - | - |
| 1777945460 | 6.67° C | 82% | 1002.4 hPa | - | - | - | - |
| 1777944560 | 6.67° C | 82% | 1002.6 hPa | - | - | - | - |
| 1777943660 | 6.67° C | 82% | 1002.4 hPa | - | - | - | - |
| 1777942760 | 6.67° C | 82% | 1002.3 hPa | - | - | - | - |
| 1777941860 | 6.67° C | 82% | 1002.4 hPa | - | - | - | - |
| 1777940960 | 6.67° C | 82% | 1002.4 hPa | - | - | - | - |
| 1777940060 | 6.67° C | 82% | 1002.5 hPa | - | - | - | - |
| 1777939160 | 6.67° C | 81% | 1002.5 hPa | - | - | - | - |
| 1777938259 | 6.67° C | 82% | 1002.5 hPa | - | - | - | - |
* Rain since midnight (hover to see other rain measurements)
** Current wind speed in m/s (hover to see current wind gust speed)